Flight Track Log - Related Links

Times and Time Zones

All times are in EDT time to prevent confusion due to time zone crossing. See the FLG3757 flight status page for this flight to view local times or setup timezone preferences in your user account.

Time Position Orientation Groundspeed Altitude Reporting Facility
EDT Latitude Longitude Course Direction KTS MPH feet Rate Location/Type
Tue 06:12:33 AM 42.2453 -76.0497 292° West 246 283 3,700  Level Cleveland Center
Tue 06:13:33 AM 42.2675 -76.1258 292° West 223 257 5,900 2,479 Climbing Cleveland Center
Tue 06:14:34 AM 42.2939 -76.2231 290° West 262 302 8,700 2,311 Climbing Cleveland Center
Tue 06:15:35 AM 42.3214 -76.3242 290° West 282 325 10,600 1,770 Climbing Cleveland Center
Tue 06:16:36 AM 42.3564 -76.4478 291° West 324 373 12,300 1,736 Climbing Cleveland Center
Tue 06:17:36 AM 42.3892 -76.5703 290° West 344 396 14,100 1,587 Climbing Cleveland Center
Tue 06:18:37 AM 42.4239 -76.6953 291° West 355 409 15,500 1,279 Climbing Cleveland Center
Tue 06:19:38 AM 42.4575 -76.8244 289° West 362 417 16,700 1,180 Climbing Cleveland Center
Tue 06:20:39 AM 42.4931 -76.9567 290° West 374 430 17,900 1,328 Climbing Cleveland Center
Tue 06:21:40 AM 42.5278 -77.0864 290° West 367 422 19,400 1,230 Climbing Cleveland Center
Tue 06:22:41 AM 42.5619 -77.2153 290° West 365 420 20,400 893 Climbing Cleveland Center
Tue 06:23:41 AM 42.5969 -77.3500 289° West 377 434 21,200 843 Climbing Cleveland Center
Tue 06:24:42 AM 42.6392 -77.5097 290° West 389 448 22,100 836 Climbing Cleveland Center
Tue 06:25:43 AM 42.6761 -77.6522 289° West 398 458 22,900 787 Climbing Cleveland Center
Tue 06:26:44 AM 42.7114 -77.7886 289° West 400 460 23,700 787 Climbing Cleveland Center
Tue 06:27:45 AM 42.7494 -77.9347 290° West 409 471 24,500 787 Climbing Cleveland Center
Tue 06:28:46 AM 42.7656 -78.0814 279° West 393 452 25,300 738 Climbing Cleveland Center
Tue 06:29:47 AM 42.7644 -78.2319 269° West 400 460 26,000 344 Climbing Cleveland Center
Tue 06:30:48 AM 42.7628 -78.3864 269° West 411 473 26,000  Level Cleveland Center
Tue 06:31:49 AM 42.7603 -78.5789 269° West 426 490 26,000  Level Cleveland Center
Tue 06:32:50 AM 42.7583 -78.7422 269° West 434 499 26,000  Level Cleveland Center
Tue 06:33:51 AM 42.7567 -78.9078 269° West 438 504 26,000  Level Cleveland Center
Tue 06:34:52 AM 42.7539 -79.0731 269° West 439 505 26,000  Level Cleveland Center
Tue 06:35:53 AM 42.7506 -79.2406 269° West 441 507 26,000  Level Cleveland Center
Tue 06:36:54 AM 42.7469 -79.4081 268° West 444 511 26,000  Level Cleveland Center
Tue 06:37:55 AM 42.7425 -79.5753 268° West 443 510 26,000  Level Cleveland Center
Tue 06:38:56 AM 42.7383 -79.7436 268° West 447 514 26,000  Level Cleveland Center
Tue 06:39:58 AM 42.7350 -79.9108 269° West 446 513 26,000  Level Cleveland Center
Tue 06:40:59 AM 42.7292 -80.0803 267° West 446 513 26,000  Level Cleveland Center
Tue 06:42:00 AM 42.7236 -80.2478 267° West 442 509 26,000  Level Cleveland Center
Tue 06:43:01 AM 42.7189 -80.4169 268° West 444 511 26,000  Level Cleveland Center
Tue 06:44:02 AM 42.7125 -80.6131 268° West 442 509 26,000 -443 Level Cleveland Center
Tue 06:45:03 AM 42.7086 -80.7844 268° West 450 518 25,100 -984 Descending Cleveland Center
Tue 06:46:04 AM 42.7008 -80.9458 266° West 434 499 24,000 -537 Descending Cleveland Center
Tue 06:47:06 AM 42.6803 -81.0983 260° West 413 475 24,000  Level Cleveland Center
Tue 06:48:07 AM 42.6633 -81.2575 262° West 420 483 24,000  Level Cleveland Center
Tue 06:49:08 AM 42.6453 -81.4122 261° West 415 478 24,000  Level Cleveland Center
Tue 06:50:09 AM 42.6264 -81.5703 261° West 420 483 24,000  Level Cleveland Center
Tue 06:51:10 AM 42.6072 -81.7272 261° West 421 484 24,000 -1,122 Level Cleveland Center
Tue 06:52:12 AM 42.5897 -81.8833 261° West 416 479 21,700 -2,195 Descending Cleveland Center
Tue 06:53:13 AM 42.5708 -82.0286 260° West 398 458 19,500 -2,109 Descending Cleveland Center
Tue 06:54:20 AM 42.5508 -82.1956 261° West 377 434 17,200 -2,066 Descending Cleveland Center
Tue 06:55:15 AM 42.5364 -82.3050 260° West 375 432 15,300 -2,300 Descending Cleveland Center
Tue 06:55:20 AM 42.5328 -82.3403 262° West 367 422 14,900 -2,200 Descending Cleveland Center
Tue 06:56:15 AM 42.5183 -82.4572 261° West 366 421 13,100 -1,684 Descending Cleveland Center
Tue 06:56:17 AM 42.5194 -82.4400 85° East 366 421 13,300 -1,200 Climbing Cleveland Center
Tue 06:57:15 AM 42.4925 -82.5869 256° West 340 391 11,900 -1,377 Descending Cleveland Center
Tue 06:57:18 AM 42.5000 -82.5722 55° Northeast 362 417 11,900 -1,475 Level Cleveland Center
Tue 06:58:16 AM 42.4553 -82.6953 244° Southwest 290 334 10,400 -1,574 Descending Cleveland Center
Tue 06:58:19 AM 42.4531 -82.6961 195° South 313 360 10,300 -1,279 Descending Cleveland Center
Tue 06:59:17 AM 42.4214 -82.7897 245° Southwest 274 315 9,100 -1,258 Descending Cleveland Center
Tue 06:59:21 AM 42.4189 -82.7881 154° Southeast 284 327 9,000 -1,200 Descending Cleveland Center
Tue 07:00:17 AM 42.4119 -82.8903 265° West 279 321 7,900 -1,180 Descending Cleveland Center
Tue 07:00:22 AM 42.4119 -82.8900 90° East 275 316 7,800 -885 Descending Cleveland Center
Tue 07:01:18 AM 42.4106 -82.9947 269° West 277 319 7,000 -885 Descending Cleveland Center
Tue 07:01:23 AM 42.4081 -82.9953 189° South 278 320 6,900 -1,475 Descending Cleveland Center
Tue 07:02:19 AM 42.4069 -83.0958 269° West 269 310 5,500 -1,452 Descending Cleveland Center
Tue 07:02:25 AM 42.4053 -83.0947 154° Southeast 271 312 5,400 -358 Descending Cleveland Center
Tue 07:03:26 AM 42.3850 -83.1944 255° West 209 241 5,100 -689 Descending Cleveland Center
Tue 07:04:27 AM 42.3458 -83.2400 221° Southwest 178 205 4,000 -968 Descending Cleveland Center
Tue 07:04:28 AM 42.3531 -83.2356 24° Northeast 204 235 4,100 -1,400 Climbing Cleveland Center
Tue 07:05:27 AM 42.3058 -83.2711 209° Southwest 167 192 2,600 -1,377 Descending Cleveland Center
Tue 07:05:29 AM 42.3106 -83.2650 44° Northeast 178 205 2,700 -689 Climbing Cleveland Center
Tue 07:06:28 AM 42.2681 -83.2969 209° Southwest 136 157 1,900 -787 Descending Cleveland Center
Tue 07:06:30 AM 42.2728 -83.2942 24° Northeast 165 190 1,900 -689 Level Cleveland Center
Tue 07:07:29 AM 42.2347 -83.3233 210° Southwest 139 160 1,200 -677 Descending Cleveland Center
Tue 07:07:32 AM 42.2394 -83.3181 40° Northeast 147 169 1,200  Level Cleveland Center
Tue 07:09:00 AM 42.2124 -83.3534 236° Southwest  Level Estimated
Tue 07:16:00 AM 42.2124 -83.3534 236° Southwest  Level Estimated
Tue 07:17:00 AM 42.2124 -83.3534 236° Southwest  Level Estimated

Login

Don't have an account? Register now (free) for customized features, flight alerts, and more!